MET'MAP v2.0
soon released !

Expected late october,
this new version will be
more efficient, smarter,
and hosted on a brand new
server x3 powerfull...
...and still free !


Not compatible ?
Try the mobile version !

LOG IN : | Subscribe | Disclaimer | Who is Orbifly ? |
ICAO code :

TAF - LFBC Cazaux - 24 Feb 2020 22:39 UTC
Data Sources :     NOAA   


- Airport Elevation : 84 ft
- No reported NOTAMs.


LFBC - Cazaux

Latest METAR recorded : 2020/02/24 21:00 LFBC 242100Z AUTO 23006KT 9999 OVC023 10/07 Q1022
NO TAF


MET'MAP, your aeronautical weather chart ! - Copyright ORBIFLY December 2007

Programming & Development : Alexandra Zaïnal
Co-Developer : Marc-Olivier Méhu
Technical & hardware support : Manuel Goepfert
Concept & Financing : Baudouin d'Aumeries